Aérodrome :
LOGIN :

S'inscrire | Disclaimer

   EN    FR    IT 

 










Légende :    VFR   VFR Marginal   IFR   IFR Intensif   IFR Très Intensif
Visi : 
Plafond : 
>= 8 km
>= 3000ft
5 à 8 km
1000 à 3000 ft
1500m à 5 km
500 à 1000 ft
800 à 1500m
200 à 500 ft
< 800m
< 200 ft
Symboles :   Orages  Brouillard  Fortes neiges  Fortes précipitations  Vent > 20 kt
SIGMETs :   Divers  Orages  Givrage  Turbulence  Onde Orograph.  Cendres Volcan.







- Altitude de l'aérodrome : 12 ft
- Code IATA : BCN


LEBL - Barcelone

DERNIER METAR :
  • 211830Z 15004KT 110V210 9999 FEW009 18/15 Q1016 NOSIG

METARs EXPIRÉS :
  • 211800Z 16003KT 120V210 9999 FEW009 18/16 Q1016 NOSIG
  • 211730Z 17005KT 110V230 9999 FEW010 19/16 Q1015 NOSIG
  • 211700Z 20005KT 120V240 9999 FEW010 19/16 Q1015 NOSIG
  • 211630Z 21010KT 180V240 9999 SCT010 19/16 Q1015 NOSIG
  • 211600Z 20010KT 160V240 9999 FEW025 19/15 Q1015 NOSIG

TAF TAF LEBL
Valide du 21 à 18h jusqu'au 22 à 18h UTC


211700Z 2118/2218 09005KT 9999 FEW025 TX21/2212Z TN13/2206Z
PROB30
TEMPO 2120/2123 4000 BR BKN014
BECMG 2121/2123 35004KT
BECMG 2207/2209 19008KT
Pas de NOTAMs connus pour ce terrain.
1 SIGMET publié pour la FIR Barcelona (LECB) :
 
Orages noyés dans la masse
LECB SIGMET 11 VALID 211804/212000 LEVA
LECB BARCELONA FIR/UIR EMBD TS OBS AT 1804Z WI N3840 W00120 - N3840 E00020 - N3915 W00005 - N3920 W00110 - N3840 W00120 TOP FL250 MOV SE 15KT WKN=



MET'MAP, la Météo Aéronautique d'un coup d'oeil ! - Copyright ORBIFLY Décembre 2007 - Disclaimer

ORBIFLY MET'MAP TEAM :

Programmation & Développement : Alexandra Zaïnal
Conception & Développement : Baudouin d'Aumeries
Co-Programmation & Développement : Marc-Olivier Méhu
Soutien technique & logistique : Manuel Goepfert

Contact : metmap@orbifly.com




SOURCES & CREDITS :

   NOAA